Time;durP1;ratioP1;P1;durP2;ratioP2;P2;SDS_P1;SDS_P2;PMS_P1;PMS_P2;Temp;Humidity;BMP_temperature;BMP_pressure;BME280_temperature;BME280_humidity;BME280_pressure;Samples;Min_cycle;Max_cycle;Signal;HPM_P1;HPM_P2
2022/03/06 00:00:07;;;;;;;18.95;10.63;;;;;;;;;;4984209;28;21429;-82
2022/03/06 00:02:33;;;;;;;21.70;10.02;;;;;;;;;;4999493;28;20041;-82
2022/03/06 00:04:59;;;;;;;21.58;10.50;;;;;;;;;;4993558;28;20025;-83
2022/03/06 00:07:25;;;;;;;23.15;10.05;;;;;;;;;;4983961;28;20088;-82
2022/03/06 00:09:51;;;;;;;18.10;8.88;;;;;;;;;;4998964;28;20054;-82
2022/03/06 00:12:17;;;;;;;20.00;8.77;;;;;;;;;;4976951;28;20417;-82
2022/03/06 00:14:43;;;;;;;22.83;8.68;;;;;;;;;;4974966;28;20048;-82
2022/03/06 00:17:09;;;;;;;18.42;9.52;;;;;;;;;;4995846;28;20037;-83
2022/03/06 00:19:35;;;;;;;20.38;9.57;;;;;;;;;;4980436;28;20908;-82
2022/03/06 00:22:01;;;;;;;21.20;8.35;;;;;;;;;;4981620;28;20025;-82
2022/03/06 00:24:27;;;;;;;18.08;8.43;;;;;;;;;;4985405;28;20042;-83
2022/03/06 00:26:53;;;;;;;15.88;8.23;;;;;;;;;;4979521;28;20378;-82
2022/03/06 00:29:19;;;;;;;12.73;7.45;;;;;;;;;;4997079;28;20084;-82
2022/03/06 00:31:45;;;;;;;16.00;7.47;;;;;;;;;;4997987;28;20038;-82
2022/03/06 00:34:11;;;;;;;21.65;7.03;;;;;;;;;;4998096;28;20092;-83
2022/03/06 00:36:38;;;;;;;18.08;7.18;;;;;;;;;;4979594;28;20251;-83
2022/03/06 00:39:04;;;;;;;15.52;7.75;;;;;;;;;;4981582;28;20500;-83
2022/03/06 00:41:30;;;;;;;22.35;7.13;;;;;;;;;;4997360;28;20029;-82
2022/03/06 00:43:57;;;;;;;17.73;7.00;;;;;;;;;;4997774;28;20022;-83
2022/03/06 00:46:23;;;;;;;15.90;8.35;;;;;;;;;;4998852;28;20062;-82
2022/03/06 00:48:49;;;;;;;13.45;6.72;;;;;;;;;;4976643;28;20179;-82
2022/03/06 00:51:15;;;;;;;13.85;6.60;;;;;;;;;;4990671;28;20030;-82
2022/03/06 00:53:44;;;;;;;12.95;7.30;;;;;;;;;;4974379;28;20034;-82
2022/03/06 00:56:10;;;;;;;17.52;6.57;;;;;;;;;;4977646;28;20400;-82
2022/03/06 00:58:37;;;;;;;18.20;7.60;;;;;;;;;;4982857;28;20022;-82
2022/03/06 01:01:04;;;;;;;20.98;7.78;;;;;;;;;;4980244;28;20030;-83
2022/03/06 01:03:30;;;;;;;22.17;6.78;;;;;;;;;;5002252;28;20632;-83
2022/03/06 01:05:57;;;;;;;24.73;7.65;;;;;;;;;;4975504;28;20638;-83
2022/03/06 01:08:23;;;;;;;17.30;7.60;;;;;;;;;;4995448;28;20061;-83
2022/03/06 01:10:49;;;;;;;18.50;7.95;;;;;;;;;;4979155;28;20560;-83
2022/03/06 01:13:17;;;;;;;11.73;6.57;;;;;;;;;;4978967;28;20034;-82
2022/03/06 01:15:43;;;;;;;17.88;7.47;;;;;;;;;;4992394;28;20030;-83
2022/03/06 01:18:09;;;;;;;13.68;7.50;;;;;;;;;;4976161;28;20374;-82
2022/03/06 01:20:36;;;;;;;11.98;6.43;;;;;;;;;;4977628;28;20033;-83
2022/03/06 01:23:02;;;;;;;14.13;6.80;;;;;;;;;;4980687;28;20030;-83
2022/03/06 01:25:28;;;;;;;18.55;6.95;;;;;;;;;;4993459;28;20121;-82
2022/03/06 01:27:54;;;;;;;16.65;7.75;;;;;;;;;;4978769;28;20034;-83
2022/03/06 01:30:21;;;;;;;12.77;7.35;;;;;;;;;;4981092;28;20117;-83
2022/03/06 01:32:47;;;;;;;11.60;6.82;;;;;;;;;;4997873;28;20073;-82
2022/03/06 01:35:13;;;;;;;16.15;6.57;;;;;;;;;;4979198;28;20092;-82
2022/03/06 01:37:39;;;;;;;13.07;6.38;;;;;;;;;;4981765;28;20173;-82
2022/03/06 01:40:06;;;;;;;12.93;6.10;;;;;;;;;;4982855;28;20058;-83
2022/03/06 01:42:41;;;;;;;14.95;6.45;;;;;;;;;;4996222;28;20068;-83
2022/03/06 01:45:08;;;;;;;11.40;6.30;;;;;;;;;;4995846;28;20033;-82
2022/03/06 01:47:34;;;;;;;13.98;6.82;;;;;;;;;;4997918;28;20040;-82
2022/03/06 01:50:01;;;;;;;11.05;6.10;;;;;;;;;;4991834;28;20672;-82
2022/03/06 01:52:27;;;;;;;17.63;7.22;;;;;;;;;;4994383;28;20033;-83
2022/03/06 01:54:54;;;;;;;12.35;6.68;;;;;;;;;;4981011;28;20040;-82
2022/03/06 01:57:20;;;;;;;12.50;6.22;;;;;;;;;;4976708;28;20029;-82
2022/03/06 01:59:46;;;;;;;16.30;6.07;;;;;;;;;;4994851;28;20034;-83
2022/03/06 02:02:12;;;;;;;11.32;6.18;;;;;;;;;;4981947;28;20437;-83
2022/03/06 02:04:38;;;;;;;13.07;5.72;;;;;;;;;;5000358;28;20029;-83
2022/03/06 02:07:04;;;;;;;13.65;5.55;;;;;;;;;;4991745;28;20027;-83
2022/03/06 02:09:31;;;;;;;16.77;6.70;;;;;;;;;;4984789;28;20030;-82
2022/03/06 02:14:41;;;;;;;10.45;5.07;;;;;;;;;;5000946;28;20092;-82
2022/03/06 02:17:07;;;;;;;15.77;5.10;;;;;;;;;;4984496;28;20041;-82
2022/03/06 02:19:50;;;;;;;14.95;5.47;;;;;;;;;;4988559;28;20693;-82
2022/03/06 02:22:16;;;;;;;7.97;5.28;;;;;;;;;;4979170;28;20367;-83
2022/03/06 02:24:42;;;;;;;11.23;5.03;;;;;;;;;;4981004;28;20109;-82
2022/03/06 02:27:08;;;;;;;9.50;4.40;;;;;;;;;;4982647;28;20030;-82
2022/03/06 02:29:34;;;;;;;9.73;4.70;;;;;;;;;;4979040;28;20033;-82
2022/03/06 02:32:01;;;;;;;9.98;4.38;;;;;;;;;;4983232;28;20034;-82
2022/03/06 02:34:28;;;;;;;7.50;4.10;;;;;;;;;;4979502;28;20026;-82
2022/03/06 02:36:55;;;;;;;7.32;3.67;;;;;;;;;;4982491;28;20057;-82
2022/03/06 02:39:27;;;;;;;11.10;4.63;;;;;;;;;;4980327;28;20035;-82
2022/03/06 02:41:53;;;;;;;9.10;4.60;;;;;;;;;;4964466;28;20121;-82
2022/03/06 02:44:19;;;;;;;10.23;4.43;;;;;;;;;;4963249;28;20149;-82
2022/03/06 02:46:45;;;;;;;9.75;4.35;;;;;;;;;;4976905;28;20057;-82
2022/03/06 02:49:13;;;;;;;9.07;4.10;;;;;;;;;;4983136;28;20038;-82
2022/03/06 02:51:40;;;;;;;8.02;4.38;;;;;;;;;;4958824;28;20587;-82
2022/03/06 02:54:06;;;;;;;10.38;5.00;;;;;;;;;;4980887;28;20030;-82
2022/03/06 02:56:32;;;;;;;10.93;4.60;;;;;;;;;;4982362;28;20065;-82
2022/03/06 02:58:58;;;;;;;21.20;5.40;;;;;;;;;;4966117;28;20470;-82
2022/03/06 03:01:25;;;;;;;13.48;4.82;;;;;;;;;;4982613;28;20057;-82
2022/03/06 03:03:51;;;;;;;9.35;4.35;;;;;;;;;;4961657;28;20117;-82
2022/03/06 03:06:17;;;;;;;11.77;4.22;;;;;;;;;;4978869;28;20138;-82
2022/03/06 03:08:46;;;;;;;8.55;4.72;;;;;;;;;;4978462;28;20026;-83
2022/03/06 03:11:12;;;;;;;12.40;4.35;;;;;;;;;;4980803;28;20041;-83
2022/03/06 03:13:38;;;;;;;12.23;4.43;;;;;;;;;;4975901;28;20090;-83
2022/03/06 03:16:05;;;;;;;12.95;4.38;;;;;;;;;;4979676;28;20394;-82
2022/03/06 03:18:31;;;;;;;8.27;4.35;;;;;;;;;;4977674;28;20137;-82
2022/03/06 03:20:57;;;;;;;10.57;4.60;;;;;;;;;;4977914;28;20420;-82
2022/03/06 03:23:23;;;;;;;15.70;4.78;;;;;;;;;;4980093;28;20034;-82
2022/03/06 03:25:49;;;;;;;12.27;5.13;;;;;;;;;;5000244;28;20029;-82
2022/03/06 03:28:15;;;;;;;11.13;4.63;;;;;;;;;;4984529;28;20065;-82
2022/03/06 03:30:41;;;;;;;12.68;4.50;;;;;;;;;;5000590;28;20089;-82
2022/03/06 03:33:07;;;;;;;13.32;5.32;;;;;;;;;;4997567;28;20385;-82
2022/03/06 03:35:33;;;;;;;8.90;4.00;;;;;;;;;;4980230;28;20042;-82
2022/03/06 03:37:59;;;;;;;10.10;4.63;;;;;;;;;;4967568;28;20158;-82
2022/03/06 03:40:25;;;;;;;11.98;4.57;;;;;;;;;;4996542;28;20170;-82
2022/03/06 03:42:52;;;;;;;13.70;4.28;;;;;;;;;;4984050;28;20042;-82
2022/03/06 03:45:18;;;;;;;11.50;5.22;;;;;;;;;;4999351;28;20047;-83
2022/03/06 03:47:44;;;;;;;11.50;4.85;;;;;;;;;;4982841;28;20428;-83
2022/03/06 03:50:17;;;;;;;10.02;4.60;;;;;;;;;;4999473;28;20458;-83
2022/03/06 03:52:43;;;;;;;9.88;5.03;;;;;;;;;;4981774;28;20048;-82
2022/03/06 03:55:09;;;;;;;8.23;4.78;;;;;;;;;;4978520;28;20026;-82
2022/03/06 03:57:35;;;;;;;14.13;5.55;;;;;;;;;;4979822;28;20034;-82
2022/03/06 04:00:01;;;;;;;12.80;4.70;;;;;;;;;;4981919;28;20599;-83
2022/03/06 04:02:27;;;;;;;13.80;4.95;;;;;;;;;;4982399;28;20022;-83
2022/03/06 04:04:53;;;;;;;11.88;4.88;;;;;;;;;;4994742;28;20925;-82
2022/03/06 04:07:19;;;;;;;9.68;4.82;;;;;;;;;;4998359;28;20038;-83
2022/03/06 04:09:45;;;;;;;16.45;4.97;;;;;;;;;;4992614;28;21827;-82
2022/03/06 04:12:11;;;;;;;12.00;4.93;;;;;;;;;;4980989;28;20060;-83
2022/03/06 04:14:37;;;;;;;9.77;4.35;;;;;;;;;;4996855;28;20029;-82
2022/03/06 04:17:04;;;;;;;15.23;5.55;;;;;;;;;;4983871;28;20049;-83
2022/03/06 04:19:30;;;;;;;14.50;5.00;;;;;;;;;;4981816;28;20089;-82
2022/03/06 04:21:56;;;;;;;11.85;4.82;;;;;;;;;;4997422;28;20037;-82
2022/03/06 04:24:22;;;;;;;15.23;5.68;;;;;;;;;;4984233;28;20026;-82
2022/03/06 04:26:48;;;;;;;12.27;5.80;;;;;;;;;;4985690;28;20104;-82
2022/03/06 04:29:14;;;;;;;15.82;5.05;;;;;;;;;;4979427;28;20041;-83
2022/03/06 04:31:40;;;;;;;11.20;4.88;;;;;;;;;;4979631;28;20034;-83
2022/03/06 04:34:06;;;;;;;12.18;5.85;;;;;;;;;;4997920;28;20029;-83
2022/03/06 04:36:32;;;;;;;7.88;4.70;;;;;;;;;;4981080;28;20691;-82
2022/03/06 04:38:58;;;;;;;15.05;4.72;;;;;;;;;;4984985;28;20350;-82
2022/03/06 04:41:24;;;;;;;11.32;4.35;;;;;;;;;;4981542;28;20022;-82
2022/03/06 04:43:53;;;;;;;10.40;4.88;;;;;;;;;;4998622;28;20045;-82
2022/03/06 04:46:19;;;;;;;7.78;4.50;;;;;;;;;;4981618;28;20026;-82
2022/03/06 04:48:45;;;;;;;19.65;5.53;;;;;;;;;;4981529;28;20033;-82
2022/03/06 04:51:11;;;;;;;13.10;5.20;;;;;;;;;;4997488;28;20045;-82
2022/03/06 04:53:38;;;;;;;11.25;4.30;;;;;;;;;;5000647;28;20488;-82
2022/03/06 04:56:04;;;;;;;11.88;4.95;;;;;;;;;;4996202;28;20468;-83
2022/03/06 04:58:31;;;;;;;11.25;4.60;;;;;;;;;;4994856;28;20517;-82
2022/03/06 05:00:57;;;;;;;9.18;4.70;;;;;;;;;;4996305;28;20470;-83
2022/03/06 05:03:23;;;;;;;7.60;4.65;;;;;;;;;;4997861;28;20394;-83
2022/03/06 05:05:50;;;;;;;12.00;4.80;;;;;;;;;;4995026;28;20037;-83
2022/03/06 05:08:16;;;;;;;11.60;4.63;;;;;;;;;;4994250;28;20036;-82
2022/03/06 05:10:42;;;;;;;10.52;4.63;;;;;;;;;;4982438;28;20516;-82
2022/03/06 05:13:09;;;;;;;9.02;4.50;;;;;;;;;;4979840;28;20529;-83
2022/03/06 05:15:35;;;;;;;10.60;5.07;;;;;;;;;;4982453;28;20029;-82
2022/03/06 05:18:01;;;;;;;12.30;4.32;;;;;;;;;;4977076;28;20034;-82
2022/03/06 05:20:28;;;;;;;11.02;4.60;;;;;;;;;;4998638;28;20062;-83
2022/03/06 05:22:54;;;;;;;13.88;4.22;;;;;;;;;;4981069;28;20337;-82
2022/03/06 05:25:20;;;;;;;13.10;4.53;;;;;;;;;;4982866;28;20133;-82
2022/03/06 05:27:46;;;;;;;9.68;3.67;;;;;;;;;;4999286;28;20030;-82
2022/03/06 05:30:13;;;;;;;8.75;4.43;;;;;;;;;;5001693;28;20475;-82
2022/03/06 05:32:39;;;;;;;8.85;4.25;;;;;;;;;;4984397;28;20030;-82
2022/03/06 05:35:06;;;;;;;7.82;4.10;;;;;;;;;;4986855;28;20041;-82
2022/03/06 05:37:32;;;;;;;10.15;4.30;;;;;;;;;;5001247;28;20083;-83
2022/03/06 05:39:58;;;;;;;11.35;4.70;;;;;;;;;;4999703;28;20673;-82
2022/03/06 05:42:24;;;;;;;9.63;4.22;;;;;;;;;;5000528;28;20116;-82
2022/03/06 05:44:50;;;;;;;13.57;4.43;;;;;;;;;;4982941;28;20025;-82
2022/03/06 05:47:17;;;;;;;12.02;4.65;;;;;;;;;;4997254;28;20181;-82
2022/03/06 05:49:43;;;;;;;10.65;4.57;;;;;;;;;;5003193;28;20397;-82
2022/03/06 05:52:09;;;;;;;11.57;4.72;;;;;;;;;;4997390;28;20408;-81
2022/03/06 05:54:35;;;;;;;9.50;4.30;;;;;;;;;;5000292;28;20116;-82
2022/03/06 05:57:01;;;;;;;14.07;4.90;;;;;;;;;;4981995;28;20842;-82
2022/03/06 05:59:27;;;;;;;13.82;5.07;;;;;;;;;;4981265;28;20564;-82
2022/03/06 06:01:53;;;;;;;9.60;4.82;;;;;;;;;;5000815;28;20653;-82
2022/03/06 06:04:19;;;;;;;22.42;5.15;;;;;;;;;;5002897;28;20071;-82
2022/03/06 06:06:45;;;;;;;9.88;4.53;;;;;;;;;;5000058;28;20030;-82
2022/03/06 06:09:11;;;;;;;12.02;4.38;;;;;;;;;;4997756;28;20045;-82
2022/03/06 06:11:37;;;;;;;13.18;4.82;;;;;;;;;;4983062;28;20092;-82
2022/03/06 06:14:04;;;;;;;8.50;4.45;;;;;;;;;;4998539;28;20377;-83
2022/03/06 06:16:30;;;;;;;17.83;4.65;;;;;;;;;;4997215;28;20659;-82
2022/03/06 06:18:56;;;;;;;13.25;4.68;;;;;;;;;;5000373;28;20382;-82
2022/03/06 06:21:22;;;;;;;12.98;4.00;;;;;;;;;;5001396;28;20519;-82
2022/03/06 06:23:48;;;;;;;11.57;4.72;;;;;;;;;;4982945;28;20584;-82
2022/03/06 06:26:15;;;;;;;5.75;3.50;;;;;;;;;;4999072;28;20521;-82
2022/03/06 06:28:41;;;;;;;6.75;3.83;;;;;;;;;;4982085;28;20057;-82
2022/03/06 06:31:08;;;;;;;13.73;4.30;;;;;;;;;;4996573;28;20022;-82
2022/03/06 06:33:35;;;;;;;10.50;3.83;;;;;;;;;;5003582;28;20034;-82
2022/03/06 06:36:01;;;;;;;7.97;4.38;;;;;;;;;;4983312;28;20037;-82
2022/03/06 06:38:28;;;;;;;11.82;4.03;;;;;;;;;;5001275;28;20438;-82
2022/03/06 06:40:55;;;;;;;9.95;3.90;;;;;;;;;;4986750;28;20029;-83
2022/03/06 06:43:21;;;;;;;5.13;3.25;;;;;;;;;;4984260;28;20037;-82
2022/03/06 06:45:48;;;;;;;8.70;3.35;;;;;;;;;;4986066;28;20022;-82
2022/03/06 06:48:14;;;;;;;4.90;3.13;;;;;;;;;;4982432;28;20080;-82
2022/03/06 06:50:40;;;;;;;8.60;2.80;;;;;;;;;;4981421;28;20038;-82
2022/03/06 06:53:06;;;;;;;6.13;3.05;;;;;;;;;;4982173;28;20034;-82
2022/03/06 06:55:35;;;;;;;7.03;3.13;;;;;;;;;;4997470;28;20042;-82
2022/03/06 06:58:02;;;;;;;6.63;3.05;;;;;;;;;;4998873;28;20043;-82
2022/03/06 07:00:28;;;;;;;9.05;3.22;;;;;;;;;;4978462;28;20049;-81
2022/03/06 07:02:54;;;;;;;7.18;2.97;;;;;;;;;;4983642;28;20041;-81
2022/03/06 07:05:20;;;;;;;12.40;5.15;;;;;;;;;;4982354;28;20101;-81
2022/03/06 07:07:46;;;;;;;10.45;5.80;;;;;;;;;;4984747;28;20524;-80
2022/03/06 07:10:12;;;;;;;16.75;5.63;;;;;;;;;;4980361;28;20045;-81
2022/03/06 07:12:46;;;;;;;3.88;2.70;;;;;;;;;;5001918;28;20441;-81
2022/03/06 07:15:13;;;;;;;5.72;2.47;;;;;;;;;;4999167;28;20497;-81
2022/03/06 07:17:39;;;;;;;4.15;2.25;;;;;;;;;;4985177;28;20102;-81
2022/03/06 07:20:06;;;;;;;5.25;2.33;;;;;;;;;;4983974;28;20757;-81
2022/03/06 07:22:32;;;;;;;5.95;2.30;;;;;;;;;;4998408;28;20049;-81
2022/03/06 07:24:58;;;;;;;6.78;2.40;;;;;;;;;;5001392;28;20073;-81
2022/03/06 07:27:24;;;;;;;4.80;2.15;;;;;;;;;;4996542;28;20049;-81
2022/03/06 07:29:50;;;;;;;11.90;2.65;;;;;;;;;;4979520;28;20784;-81
2022/03/06 07:32:16;;;;;;;3.83;2.17;;;;;;;;;;4982650;28;20124;-82
2022/03/06 07:34:43;;;;;;;6.07;2.92;;;;;;;;;;4995181;28;20037;-82
2022/03/06 07:37:09;;;;;;;5.50;2.55;;;;;;;;;;4981083;28;20030;-81
2022/03/06 07:39:35;;;;;;;3.92;2.20;;;;;;;;;;4985539;28;20421;-81
2022/03/06 07:42:01;;;;;;;4.57;2.45;;;;;;;;;;4979973;28;20030;-81
2022/03/06 07:44:27;;;;;;;7.90;2.67;;;;;;;;;;4997745;28;20120;-81
2022/03/06 07:46:53;;;;;;;4.88;2.25;;;;;;;;;;5001845;28;20049;-81
2022/03/06 07:49:19;;;;;;;3.20;2.13;;;;;;;;;;4998260;28;20026;-81
2022/03/06 07:51:45;;;;;;;7.07;2.60;;;;;;;;;;4997025;28;20038;-81
2022/03/06 07:54:14;;;;;;;7.35;3.42;;;;;;;;;;4984162;28;20635;-81
2022/03/06 07:56:41;;;;;;;11.30;2.38;;;;;;;;;;4995086;28;20394;-82
2022/03/06 07:59:07;;;;;;;3.30;2.20;;;;;;;;;;4996666;28;20828;-82
2022/03/06 08:01:33;;;;;;;4.55;1.83;;;;;;;;;;4984113;28;20026;-81
2022/03/06 08:03:59;;;;;;;8.15;2.15;;;;;;;;;;4999150;28;20069;-82
2022/03/06 08:06:25;;;;;;;3.17;2.00;;;;;;;;;;4995767;28;20120;-81
2022/03/06 08:08:51;;;;;;;3.05;2.00;;;;;;;;;;4997529;28;20027;-82
2022/03/06 08:11:17;;;;;;;7.20;2.38;;;;;;;;;;4994951;28;20046;-82
2022/03/06 08:13:43;;;;;;;8.52;2.22;;;;;;;;;;4981441;28;20033;-82
2022/03/06 08:16:09;;;;;;;6.38;2.50;;;;;;;;;;4979661;28;20027;-82
2022/03/06 08:18:36;;;;;;;3.42;2.13;;;;;;;;;;4996815;28;20032;-83
2022/03/06 08:21:02;;;;;;;7.13;2.70;;;;;;;;;;4978908;28;20497;-83
2022/03/06 08:23:34;;;;;;;4.95;2.58;;;;;;;;;;4995924;28;20631;-83
2022/03/06 08:26:00;;;;;;;4.88;2.78;;;;;;;;;;4984270;28;20386;-82
2022/03/06 08:28:26;;;;;;;6.30;2.35;;;;;;;;;;4996611;28;20437;-83
2022/03/06 08:30:52;;;;;;;5.70;2.75;;;;;;;;;;5002910;28;20077;-83
2022/03/06 08:33:18;;;;;;;6.32;2.42;;;;;;;;;;4984520;28;20085;-83
2022/03/06 08:35:44;;;;;;;5.57;2.97;;;;;;;;;;4986035;28;20485;-83
2022/03/06 08:38:10;;;;;;;5.57;2.33;;;;;;;;;;4975622;28;20057;-82
2022/03/06 08:40:36;;;;;;;8.75;2.70;;;;;;;;;;4987233;28;20076;-83
2022/03/06 08:43:02;;;;;;;3.72;2.17;;;;;;;;;;4997139;28;20037;-83
2022/03/06 08:45:28;;;;;;;8.02;2.38;;;;;;;;;;4991167;28;20045;-83
2022/03/06 08:47:54;;;;;;;3.13;2.13;;;;;;;;;;4995636;28;20362;-83
2022/03/06 08:50:21;;;;;;;6.65;2.53;;;;;;;;;;4978135;28;20120;-82
2022/03/06 08:52:47;;;;;;;4.22;2.40;;;;;;;;;;4976644;28;20090;-82
2022/03/06 08:55:13;;;;;;;4.35;1.95;;;;;;;;;;4976838;28;20037;-83
2022/03/06 08:57:39;;;;;;;4.53;2.47;;;;;;;;;;4993541;28;20041;-83
2022/03/06 09:00:06;;;;;;;5.45;2.70;;;;;;;;;;4979431;28;20092;-83
2022/03/06 09:02:32;;;;;;;8.75;2.58;;;;;;;;;;4981332;28;20018;-82
2022/03/06 09:04:58;;;;;;;3.60;2.35;;;;;;;;;;4973462;28;20804;-82
2022/03/06 09:07:24;;;;;;;7.47;2.80;;;;;;;;;;4987292;28;20049;-83
2022/03/06 09:09:50;;;;;;;5.60;2.85;;;;;;;;;;4995273;28;20151;-82
2022/03/06 09:12:18;;;;;;;4.13;2.40;;;;;;;;;;4988641;28;20061;-82
2022/03/06 09:14:44;;;;;;;5.13;3.20;;;;;;;;;;4978708;28;20039;-83
2022/03/06 09:17:12;;;;;;;3.90;2.80;;;;;;;;;;4977207;28;20678;-83
2022/03/06 09:20:00;;;;;;;6.68;2.60;;;;;;;;;;4995350;28;20062;-83
2022/03/06 09:22:26;;;;;;;2.80;2.20;;;;;;;;;;4990745;28;20037;-83
2022/03/06 09:24:52;;;;;;;10.18;2.72;;;;;;;;;;4974274;28;20141;-83
2022/03/06 09:27:18;;;;;;;9.65;5.25;;;;;;;;;;4989805;28;20034;-83
2022/03/06 09:29:44;;;;;;;3.83;2.50;;;;;;;;;;4981381;28;20054;-83
2022/03/06 09:32:10;;;;;;;3.75;2.33;;;;;;;;;;4976830;28;20117;-82
2022/03/06 09:34:37;;;;;;;4.30;2.67;;;;;;;;;;4976095;28;20037;-81
2022/03/06 09:37:03;;;;;;;3.95;2.45;;;;;;;;;;4976929;28;20030;-82
2022/03/06 09:39:29;;;;;;;5.70;2.58;;;;;;;;;;4994301;28;20021;-82
2022/03/06 09:41:56;;;;;;;4.93;2.72;;;;;;;;;;4974662;28;20041;-81
2022/03/06 09:44:24;;;;;;;6.85;2.80;;;;;;;;;;4990811;28;20668;-82
2022/03/06 09:46:52;;;;;;;5.75;3.17;;;;;;;;;;4993068;28;20645;-82
2022/03/06 09:49:19;;;;;;;5.63;3.00;;;;;;;;;;4992601;28;20401;-82
2022/03/06 09:51:45;;;;;;;5.88;2.92;;;;;;;;;;4976597;28;20611;-81
2022/03/06 09:54:12;;;;;;;5.28;3.35;;;;;;;;;;4975038;28;20157;-82
2022/03/06 09:56:39;;;;;;;4.25;2.92;;;;;;;;;;4976081;28;20560;-81
2022/03/06 09:59:09;;;;;;;3.47;2.75;;;;;;;;;;4980286;28;20034;-82
2022/03/06 10:01:35;;;;;;;5.30;2.95;;;;;;;;;;4973908;28;20192;-82
2022/03/06 10:04:21;;;;;;;7.80;3.20;;;;;;;;;;4989664;28;20592;-82
2022/03/06 10:07:06;;;;;;;5.83;3.30;;;;;;;;;;4974820;28;20029;-81
2022/03/06 10:09:32;;;;;;;5.28;2.78;;;;;;;;;;4973663;28;20113;-82
2022/03/06 10:11:59;;;;;;;4.93;3.15;;;;;;;;;;4976326;28;20030;-82
2022/03/06 10:14:38;;;;;;;6.65;3.47;;;;;;;;;;4991426;28;20865;-82
2022/03/06 10:17:08;;;;;;;5.22;3.35;;;;;;;;;;4977068;28;20584;-82
2022/03/06 10:19:48;;;;;;;5.07;2.83;;;;;;;;;;4980505;28;20037;-82
2022/03/06 10:22:14;;;;;;;5.88;3.30;;;;;;;;;;4998690;28;20051;-83
2022/03/06 10:24:54;;;;;;;7.40;3.22;;;;;;;;;;4998514;28;20041;-83
2022/03/06 10:27:40;;;;;;;6.15;2.47;;;;;;;;;;4982514;28;20025;-83
2022/03/06 10:30:21;;;;;;;6.10;3.05;;;;;;;;;;4998035;28;20072;-83
2022/03/06 10:32:47;;;;;;;6.03;3.95;;;;;;;;;;4989779;28;20037;-83
2022/03/06 10:35:13;;;;;;;5.93;2.95;;;;;;;;;;4994297;28;20471;-83
2022/03/06 10:37:40;;;;;;;8.65;3.47;;;;;;;;;;4982036;28;20037;-83
2022/03/06 10:40:07;;;;;;;4.40;2.92;;;;;;;;;;5002162;28;20137;-83
2022/03/06 10:42:34;;;;;;;4.47;2.90;;;;;;;;;;4982375;28;20038;-84
2022/03/06 10:45:00;;;;;;;6.47;4.20;;;;;;;;;;5001334;28;20415;-83
2022/03/06 10:47:26;;;;;;;5.82;4.40;;;;;;;;;;4997628;28;20155;-83
2022/03/06 10:49:59;;;;;;;5.28;4.18;;;;;;;;;;4980930;28;20067;-83
2022/03/06 10:52:25;;;;;;;4.50;3.20;;;;;;;;;;4979976;28;20041;-83
2022/03/06 10:54:53;;;;;;;7.57;3.88;;;;;;;;;;4994863;28;20393;-83
2022/03/06 10:57:19;;;;;;;4.55;3.40;;;;;;;;;;4983176;28;20045;-83
2022/03/06 10:59:46;;;;;;;5.40;3.78;;;;;;;;;;4999549;28;20038;-83
2022/03/06 11:02:13;;;;;;;5.50;4.40;;;;;;;;;;4982964;28;20029;-83
2022/03/06 11:04:40;;;;;;;5.15;3.72;;;;;;;;;;4997474;28;20122;-83
2022/03/06 11:07:06;;;;;;;7.60;3.97;;;;;;;;;;4978922;28;20045;-83
2022/03/06 11:09:33;;;;;;;6.72;3.63;;;;;;;;;;4998157;28;20378;-83
2022/03/06 11:11:59;;;;;;;5.75;3.78;;;;;;;;;;4984252;28;20029;-83
2022/03/06 11:14:25;;;;;;;6.03;3.28;;;;;;;;;;5002108;28;20038;-83
2022/03/06 11:16:51;;;;;;;9.48;3.90;;;;;;;;;;4999390;28;20560;-83
2022/03/06 11:19:17;;;;;;;4.72;3.88;;;;;;;;;;4998893;28;20412;-83
2022/03/06 11:21:44;;;;;;;4.97;3.42;;;;;;;;;;4993825;28;20745;-83
2022/03/06 11:24:20;;;;;;;4.32;2.95;;;;;;;;;;4983721;28;20033;-83
2022/03/06 11:26:49;;;;;;;4.13;2.53;;;;;;;;;;4981489;28;20636;-83
2022/03/06 11:29:15;;;;;;;4.45;2.85;;;;;;;;;;4997296;28;20030;-83
2022/03/06 11:31:48;;;;;;;7.85;2.83;;;;;;;;;;4985695;28;20151;-82
2022/03/06 11:34:25;;;;;;;6.03;3.00;;;;;;;;;;4981744;28;20124;-83
2022/03/06 11:36:52;;;;;;;5.65;2.88;;;;;;;;;;4981178;28;20470;-83
2022/03/06 11:39:30;;;;;;;7.60;2.70;;;;;;;;;;5001356;28;20501;-83
2022/03/06 11:41:57;;;;;;;7.82;2.88;;;;;;;;;;4980303;28;20413;-83
2022/03/06 11:44:36;;;;;;;6.75;2.60;;;;;;;;;;4983122;28;20029;-83
2022/03/06 11:47:15;;;;;;;4.05;2.75;;;;;;;;;;4980717;28;20046;-83
2022/03/06 11:49:41;;;;;;;3.92;2.35;;;;;;;;;;4979472;28;20726;-83
2022/03/06 11:52:27;;;;;;;5.78;3.10;;;;;;;;;;4998535;28;20034;-83
2022/03/06 11:54:53;;;;;;;6.38;2.88;;;;;;;;;;4977890;28;20049;-83
2022/03/06 11:57:37;;;;;;;8.90;2.85;;;;;;;;;;4981767;28;20396;-83
2022/03/06 12:00:23;;;;;;;5.32;2.42;;;;;;;;;;4997299;28;20412;-84
2022/03/06 12:02:53;;;;;;;9.00;3.45;;;;;;;;;;4993797;28;20069;-83
2022/03/06 12:05:42;;;;;;;5.82;2.85;;;;;;;;;;4978749;28;20034;-83
2022/03/06 12:08:10;;;;;;;5.88;2.70;;;;;;;;;;4983041;28;20057;-84
2022/03/06 12:10:36;;;;;;;4.20;2.63;;;;;;;;;;4983163;28;20084;-83
2022/03/06 12:13:02;;;;;;;5.20;2.60;;;;;;;;;;4988172;28;20034;-83
2022/03/06 12:15:29;;;;;;;10.73;2.95;;;;;;;;;;5001448;28;20025;-82
2022/03/06 12:18:05;;;;;;;4.60;2.25;;;;;;;;;;4994495;28;20064;-83
2022/03/06 12:20:48;;;;;;;6.35;2.80;;;;;;;;;;4992616;28;20768;-83
2022/03/06 12:23:20;;;;;;;6.40;2.70;;;;;;;;;;4999245;28;20036;-83
2022/03/06 12:25:50;;;;;;;5.80;2.53;;;;;;;;;;4980133;28;20389;-83
2022/03/06 12:28:17;;;;;;;4.03;2.80;;;;;;;;;;4977975;28;20030;-82
2022/03/06 12:30:44;;;;;;;2.60;2.20;;;;;;;;;;4981191;28;20576;-83
2022/03/06 12:33:29;;;;;;;6.38;2.20;;;;;;;;;;4981464;28;20041;-82
2022/03/06 12:36:08;;;;;;;4.17;2.23;;;;;;;;;;4995978;28;20092;-82
2022/03/06 12:38:35;;;;;;;4.20;2.33;;;;;;;;;;4983298;28;20049;-82
2022/03/06 12:41:01;;;;;;;5.53;2.60;;;;;;;;;;4975693;28;20026;-82
2022/03/06 12:43:31;;;;;;;6.82;2.72;;;;;;;;;;4990862;28;20073;-82
2022/03/06 12:45:59;;;;;;;7.70;4.20;;;;;;;;;;4995283;28;20687;-82
2022/03/06 12:48:25;;;;;;;7.78;2.67;;;;;;;;;;4977490;28;20044;-82
2022/03/06 12:50:55;;;;;;;5.32;2.50;;;;;;;;;;4980027;28;20030;-82
2022/03/06 12:53:21;;;;;;;6.50;2.90;;;;;;;;;;4978345;28;20048;-82
2022/03/06 12:55:56;;;;;;;7.55;3.42;;;;;;;;;;4976347;28;20097;-83
2022/03/06 12:58:22;;;;;;;7.88;2.97;;;;;;;;;;4988404;28;20033;-82
2022/03/06 13:00:48;;;;;;;10.95;2.90;;;;;;;;;;4979967;28;20075;-82
2022/03/06 13:03:15;;;;;;;5.60;3.10;;;;;;;;;;4977718;28;20042;-81
2022/03/06 13:05:41;;;;;;;4.40;2.92;;;;;;;;;;4978797;28;20056;-82
2022/03/06 13:08:07;;;;;;;6.35;3.20;;;;;;;;;;4979927;28;20061;-83
2022/03/06 13:10:33;;;;;;;4.93;3.25;;;;;;;;;;4978458;28;20045;-83
2022/03/06 13:13:00;;;;;;;5.88;2.40;;;;;;;;;;4977175;28;20441;-82
2022/03/06 13:15:27;;;;;;;5.28;2.40;;;;;;;;;;4975091;28;20049;-82
2022/03/06 13:17:58;;;;;;;5.18;2.67;;;;;;;;;;4977146;28;20444;-82
2022/03/06 13:20:32;;;;;;;3.95;2.47;;;;;;;;;;4993361;28;20042;-82
2022/03/06 13:22:58;;;;;;;6.50;2.90;;;;;;;;;;4995387;28;20383;-82
2022/03/06 13:25:25;;;;;;;6.63;3.30;;;;;;;;;;4977744;28;20453;-82
2022/03/06 13:27:51;;;;;;;6.40;2.67;;;;;;;;;;4994192;28;20478;-82
2022/03/06 13:30:18;;;;;;;7.25;2.42;;;;;;;;;;4979174;28;20564;-82
2022/03/06 13:32:52;;;;;;;7.53;2.92;;;;;;;;;;4974641;28;20038;-83
2022/03/06 13:35:44;;;;;;;6.55;2.63;;;;;;;;;;4979725;28;20042;-82
2022/03/06 13:38:13;;;;;;;7.80;2.90;;;;;;;;;;4990217;28;20042;-82
2022/03/06 13:40:39;;;;;;;5.65;2.85;;;;;;;;;;4987996;28;20551;-80
2022/03/06 13:43:05;;;;;;;5.15;2.30;;;;;;;;;;4978370;28;20022;-80
2022/03/06 13:45:31;;;;;;;10.07;3.00;;;;;;;;;;4964882;28;20033;-81
2022/03/06 13:48:02;;;;;;;3.17;2.28;;;;;;;;;;4979398;28;20030;-81
2022/03/06 13:50:31;;;;;;;3.22;2.20;;;;;;;;;;4975085;28;20393;-80
2022/03/06 13:52:57;;;;;;;5.40;2.85;;;;;;;;;;4979340;28;20039;-80
2022/03/06 13:55:25;;;;;;;4.80;2.47;;;;;;;;;;4999291;28;20037;-80
2022/03/06 13:58:02;;;;;;;10.45;2.85;;;;;;;;;;4977650;28;20050;-81
2022/03/06 14:00:29;;;;;;;7.57;2.88;;;;;;;;;;4981099;28;20046;-81
2022/03/06 14:03:00;;;;;;;7.95;2.70;;;;;;;;;;4994250;28;20536;-81
2022/03/06 14:05:33;;;;;;;9.38;3.03;;;;;;;;;;4982758;28;20112;-81
2022/03/06 14:08:16;;;;;;;4.93;2.35;;;;;;;;;;4986868;28;20048;-81
2022/03/06 14:10:46;;;;;;;4.93;2.45;;;;;;;;;;4995983;28;20374;-81
2022/03/06 14:13:24;;;;;;;10.70;2.80;;;;;;;;;;4981521;28;20033;-81
2022/03/06 14:15:51;;;;;;;11.98;2.55;;;;;;;;;;5000667;28;20082;-81
2022/03/06 14:18:36;;;;;;;4.43;2.42;;;;;;;;;;4993599;28;20363;-81
2022/03/06 14:21:25;;;;;;;6.43;2.67;;;;;;;;;;4976185;28;20552;-80
2022/03/06 14:23:52;;;;;;;4.88;2.30;;;;;;;;;;4966769;28;20215;-81
2022/03/06 14:26:25;;;;;;;5.10;2.97;;;;;;;;;;4982236;28;20022;-81
2022/03/06 14:28:56;;;;;;;7.53;2.70;;;;;;;;;;4997330;28;20077;-81
2022/03/06 14:31:23;;;;;;;6.57;3.05;;;;;;;;;;4979253;28;20070;-82
2022/03/06 14:33:49;;;;;;;4.13;2.47;;;;;;;;;;4984693;28;20057;-82
2022/03/06 14:36:15;;;;;;;4.82;2.78;;;;;;;;;;4982854;28;20034;-83
2022/03/06 14:38:42;;;;;;;11.38;4.13;;;;;;;;;;4982126;28;20042;-82
2022/03/06 14:41:08;;;;;;;6.07;3.17;;;;;;;;;;4999218;28;20026;-82
2022/03/06 14:43:35;;;;;;;7.68;3.10;;;;;;;;;;4997178;28;20038;-82